Time;durP1;ratioP1;P1;durP2;ratioP2;P2;SDS_P1;SDS_P2;PMS_P1;PMS_P2;Temp;Humidity;BMP_temperature;BMP_pressure;BME280_temperature;BME280_humidity;BME280_pressure;Samples;Min_cycle;Max_cycle;Signal;HPM_P1;HPM_P2
2022/11/30 00:00:06;;;;;;;17.73;9.18;;;5.50;99.90;;;;;;497198;239;27480;-64
2022/11/30 00:02:07;;;;;;;15.32;8.90;;;5.50;99.90;;;;;;497264;239;27523;-67
2022/11/30 00:04:09;;;;;;;16.60;9.10;;;5.50;99.90;;;;;;497261;239;27561;-64
2022/11/30 00:06:10;;;;;;;15.98;9.20;;;5.50;99.90;;;;;;497236;239;27575;-65
2022/11/30 00:08:11;;;;;;;14.27;8.45;;;5.40;99.90;;;;;;497197;239;27535;-65
2022/11/30 00:10:12;;;;;;;15.38;8.60;;;5.50;99.90;;;;;;497221;239;28045;-64
2022/11/30 00:12:14;;;;;;;14.87;8.15;;;5.50;99.90;;;;;;497233;239;27961;-67
2022/11/30 00:14:15;;;;;;;15.48;8.40;;;5.50;99.90;;;;;;497191;239;27906;-64
2022/11/30 00:16:16;;;;;;;14.70;8.80;;;5.60;99.90;;;;;;497211;239;27496;-65
2022/11/30 00:18:17;;;;;;;12.75;7.15;;;5.60;99.90;;;;;;497221;239;27468;-64
2022/11/30 00:20:19;;;;;;;13.68;7.97;;;5.60;99.90;;;;;;497227;239;27543;-66
2022/11/30 00:22:20;;;;;;;15.60;7.78;;;5.60;99.90;;;;;;497229;239;27621;-68
2022/11/30 00:24:21;;;;;;;14.80;7.40;;;5.60;99.90;;;;;;497211;239;27457;-66
2022/11/30 00:26:22;;;;;;;17.20;8.23;;;5.60;99.90;;;;;;497185;239;28020;-65
2022/11/30 00:28:24;;;;;;;15.07;7.80;;;5.60;99.90;;;;;;497207;239;27881;-64
2022/11/30 00:30:25;;;;;;;13.73;7.50;;;5.60;99.90;;;;;;497247;239;27440;-64
2022/11/30 00:32:26;;;;;;;10.38;6.90;;;5.50;99.90;;;;;;497214;239;27484;-68
2022/11/30 00:34:27;;;;;;;9.63;6.45;;;5.50;99.90;;;;;;497208;239;27484;-65
2022/11/30 00:36:29;;;;;;;12.15;6.95;;;5.50;99.90;;;;;;497176;239;27476;-65
2022/11/30 00:38:30;;;;;;;13.70;6.85;;;5.50;99.90;;;;;;497203;239;27589;-63
2022/11/30 00:40:31;;;;;;;12.07;6.28;;;5.50;99.90;;;;;;497235;239;28059;-66
2022/11/30 00:42:32;;;;;;;13.68;6.62;;;5.50;99.90;;;;;;497186;239;28058;-69
2022/11/30 00:44:34;;;;;;;13.93;7.03;;;5.50;99.90;;;;;;497221;239;27897;-64
2022/11/30 00:46:35;;;;;;;15.50;7.00;;;5.50;99.90;;;;;;497197;239;27560;-66
2022/11/30 00:48:36;;;;;;;11.77;6.93;;;5.50;99.90;;;;;;497208;239;27503;-64
2022/11/30 00:50:37;;;;;;;10.43;6.30;;;5.50;99.90;;;;;;497224;239;27403;-65
2022/11/30 00:52:39;;;;;;;12.35;6.47;;;5.60;99.90;;;;;;497236;239;27463;-65
2022/11/30 00:54:40;;;;;;;14.60;6.28;;;5.60;99.90;;;;;;497208;239;27473;-63
2022/11/30 00:56:41;;;;;;;14.30;6.70;;;5.60;99.90;;;;;;497168;239;28083;-64
2022/11/30 00:58:42;;;;;;;11.93;7.80;;;5.60;99.90;;;;;;497201;239;27870;-64
2022/11/30 01:00:44;;;;;;;12.60;7.30;;;5.60;99.90;;;;;;497232;239;27454;-66
2022/11/30 01:02:45;;;;;;;13.27;7.82;;;5.60;99.90;;;;;;497229;239;27595;-66
2022/11/30 01:04:46;;;;;;;13.38;7.78;;;5.60;99.90;;;;;;497231;239;27547;-64
2022/11/30 01:06:48;;;;;;;12.02;6.80;;;5.60;99.90;;;;;;497150;239;27556;-66
2022/11/30 01:08:49;;;;;;;12.80;7.20;;;5.60;99.90;;;;;;497204;239;27554;-64
2022/11/30 01:10:52;;;;;;;12.60;7.20;;;5.60;99.90;;;;;;497236;239;28057;-64
2022/11/30 01:12:51;;;;;;;13.52;7.25;;;5.60;99.90;;;;;;497088;239;27939;-65
2022/11/30 01:14:53;;;;;;;11.45;7.22;;;5.60;99.90;;;;;;497223;239;27551;-64
2022/11/30 01:16:54;;;;;;;11.88;6.70;;;5.60;99.90;;;;;;497190;239;27499;-66
2022/11/30 01:18:55;;;;;;;12.73;7.53;;;5.60;99.90;;;;;;497195;239;27489;-66
2022/11/30 01:20:56;;;;;;;12.43;7.20;;;5.60;99.90;;;;;;497217;239;27487;-65
2022/11/30 01:22:58;;;;;;;12.35;6.62;;;5.70;99.90;;;;;;497234;239;27443;-65
2022/11/30 01:24:59;;;;;;;13.93;7.32;;;5.60;99.90;;;;;;497210;239;27884;-66
2022/11/30 01:27:00;;;;;;;13.90;7.53;;;5.60;99.90;;;;;;497206;239;28107;-64
2022/11/30 01:29:01;;;;;;;12.88;6.62;;;5.60;99.90;;;;;;497227;239;27511;-64
2022/11/30 01:31:03;;;;;;;12.07;7.07;;;5.60;99.90;;;;;;497229;239;27540;-66
2022/11/30 01:33:04;;;;;;;9.43;6.12;;;5.70;99.90;;;;;;497249;239;27528;-67
2022/11/30 01:35:05;;;;;;;12.02;6.53;;;5.60;99.90;;;;;;497215;239;27568;-65
2022/11/30 01:37:06;;;;;;;14.45;6.10;;;5.60;99.90;;;;;;497189;238;27492;-64
2022/11/30 01:39:08;;;;;;;14.25;6.90;;;5.70;99.90;;;;;;497229;239;28477;-64
2022/11/30 01:41:09;;;;;;;11.68;6.82;;;5.60;99.90;;;;;;497211;239;27935;-64
2022/11/30 01:43:10;;;;;;;16.83;8.82;;;5.60;99.90;;;;;;497166;239;27508;-65
2022/11/30 01:45:11;;;;;;;20.83;9.93;;;5.60;99.90;;;;;;497209;239;27445;-64
2022/11/30 01:47:13;;;;;;;16.25;8.75;;;5.70;99.90;;;;;;497173;239;27484;-66
2022/11/30 01:49:14;;;;;;;21.55;10.38;;;5.70;99.90;;;;;;497218;239;27468;-69
2022/11/30 01:51:15;;;;;;;21.15;10.52;;;5.70;99.90;;;;;;497231;239;27551;-66
2022/11/30 01:53:16;;;;;;;21.62;11.02;;;5.60;99.90;;;;;;497193;239;27961;-67
2022/11/30 01:55:18;;;;;;;21.62;10.57;;;5.60;99.90;;;;;;497181;239;28036;-66
2022/11/30 01:57:20;;;;;;;21.55;9.43;;;5.60;99.90;;;;;;497163;239;27483;-67
2022/11/30 01:59:20;;;;;;;18.00;9.07;;;5.70;99.90;;;;;;497243;239;27484;-69
2022/11/30 02:01:21;;;;;;;18.17;9.50;;;5.70;99.90;;;;;;497193;239;27551;-65
2022/11/30 02:03:23;;;;;;;18.23;8.77;;;5.70;99.90;;;;;;497181;239;27515;-67
2022/11/30 02:05:24;;;;;;;17.65;8.45;;;5.70;99.90;;;;;;497189;239;27528;-66
2022/11/30 02:07:25;;;;;;;15.02;8.80;;;5.70;99.90;;;;;;497194;239;28035;-66
2022/11/30 02:09:27;;;;;;;17.17;8.65;;;5.60;99.90;;;;;;497241;239;27652;-67
2022/11/30 02:11:28;;;;;;;16.58;9.40;;;5.60;99.90;;;;;;497216;239;27527;-64
2022/11/30 02:13:29;;;;;;;15.32;8.43;;;5.60;99.90;;;;;;497207;239;27567;-66
2022/11/30 02:15:30;;;;;;;18.12;7.90;;;5.60;99.90;;;;;;497218;239;27523;-67
2022/11/30 02:17:32;;;;;;;19.15;8.27;;;5.60;99.90;;;;;;497189;239;27546;-66
2022/11/30 02:19:33;;;;;;;14.40;7.97;;;5.60;99.90;;;;;;497219;239;28046;-68
2022/11/30 02:21:34;;;;;;;15.50;8.30;;;5.60;99.90;;;;;;497223;239;27975;-66
2022/11/30 02:23:35;;;;;;;13.32;7.90;;;5.60;99.90;;;;;;497190;239;27500;-66
2022/11/30 02:25:37;;;;;;;15.38;8.25;;;5.60;99.90;;;;;;497168;239;27436;-65
2022/11/30 02:27:38;;;;;;;14.23;7.45;;;5.50;99.90;;;;;;497205;239;27588;-66
2022/11/30 02:29:39;;;;;;;14.55;8.32;;;5.50;99.90;;;;;;497233;239;27479;-68
2022/11/30 02:31:40;;;;;;;12.55;7.15;;;5.50;99.90;;;;;;497184;239;27948;-66
2022/11/30 02:33:42;;;;;;;10.63;6.70;;;5.50;99.90;;;;;;497202;239;27928;-66
2022/11/30 02:35:43;;;;;;;13.13;7.68;;;5.50;99.90;;;;;;497190;239;28094;-66
2022/11/30 02:37:44;;;;;;;13.73;8.13;;;5.50;99.90;;;;;;497204;239;27551;-66
2022/11/30 02:39:45;;;;;;;16.30;7.90;;;5.50;99.90;;;;;;497195;239;27480;-68
2022/11/30 02:41:47;;;;;;;19.37;8.23;;;5.50;99.90;;;;;;497209;239;27468;-66
2022/11/30 02:43:48;;;;;;;15.25;8.25;;;5.50;99.90;;;;;;497208;239;27508;-64
2022/11/30 02:45:49;;;;;;;20.75;7.82;;;5.50;99.90;;;;;;497174;239;27444;-63
2022/11/30 02:47:50;;;;;;;14.55;7.72;;;5.50;99.90;;;;;;497201;239;27987;-63
2022/11/30 02:49:52;;;;;;;15.32;8.38;;;5.60;99.90;;;;;;497225;239;27960;-66
2022/11/30 02:51:53;;;;;;;14.95;7.87;;;5.60;99.90;;;;;;497191;239;27438;-66
2022/11/30 02:53:54;;;;;;;15.00;8.45;;;5.60;99.90;;;;;;497209;239;27591;-64
2022/11/30 02:55:55;;;;;;;16.80;8.27;;;5.60;99.90;;;;;;497163;239;27437;-65
2022/11/30 02:57:57;;;;;;;15.63;8.90;;;5.60;99.90;;;;;;497190;239;27445;-64
2022/11/30 02:59:58;;;;;;;16.90;8.20;;;5.60;99.90;;;;;;497229;239;27619;-68
2022/11/30 03:02:00;;;;;;;15.45;7.68;;;5.60;99.90;;;;;;497216;239;27957;-65
2022/11/30 03:04:00;;;;;;;13.30;7.40;;;5.60;99.90;;;;;;497211;239;28034;-65
2022/11/30 03:06:02;;;;;;;24.42;10.80;;;5.60;99.90;;;;;;497184;239;27472;-64
2022/11/30 03:08:03;;;;;;;22.25;11.18;;;5.50;99.90;;;;;;497166;239;27441;-64
2022/11/30 03:10:04;;;;;;;25.40;11.02;;;5.60;99.90;;;;;;497217;239;27579;-65
2022/11/30 03:12:06;;;;;;;19.45;9.68;;;5.60;99.90;;;;;;497165;239;27448;-65
2022/11/30 03:14:07;;;;;;;18.42;9.68;;;5.60;99.90;;;;;;497187;239;27570;-65
2022/11/30 03:16:08;;;;;;;21.55;9.60;;;5.60;99.90;;;;;;497154;239;28663;-64
2022/11/30 03:18:09;;;;;;;23.98;10.57;;;5.70;99.90;;;;;;497210;239;27914;-66
2022/11/30 03:20:11;;;;;;;24.92;10.07;;;5.60;99.90;;;;;;497229;239;27488;-66
2022/11/30 03:22:12;;;;;;;20.88;10.18;;;5.60;99.90;;;;;;497205;239;27429;-64
2022/11/30 03:24:13;;;;;;;22.67;9.93;;;5.60;99.90;;;;;;497176;239;27512;-65
2022/11/30 03:26:14;;;;;;;20.17;9.55;;;5.60;99.90;;;;;;497177;239;27444;-64
2022/11/30 03:28:16;;;;;;;18.40;9.48;;;5.70;99.90;;;;;;497228;239;27894;-65
2022/11/30 03:30:17;;;;;;;21.23;9.93;;;5.60;99.90;;;;;;497210;239;27940;-68
2022/11/30 03:32:18;;;;;;;22.48;10.20;;;5.60;99.90;;;;;;497193;239;27477;-66
2022/11/30 03:34:19;;;;;;;20.75;10.68;;;5.60;99.90;;;;;;497191;239;27484;-64
2022/11/30 03:36:21;;;;;;;21.58;9.77;;;5.60;99.90;;;;;;497195;239;27445;-64
2022/11/30 03:38:22;;;;;;;29.67;13.45;;;5.70;99.90;;;;;;497225;239;27461;-64
2022/11/30 03:40:23;;;;;;;33.08;13.82;;;5.60;99.90;;;;;;497243;239;27479;-66
2022/11/30 03:42:24;;;;;;;28.33;13.45;;;5.60;99.90;;;;;;497230;239;27977;-64
2022/11/30 03:44:26;;;;;;;25.70;12.77;;;5.60;99.90;;;;;;497183;239;27947;-67
2022/11/30 03:46:27;;;;;;;23.62;11.07;;;5.60;99.90;;;;;;497182;239;27491;-64
2022/11/30 03:48:29;;;;;;;32.58;12.10;;;5.70;99.90;;;;;;497206;239;27575;-65
2022/11/30 03:50:29;;;;;;;25.95;12.15;;;5.70;99.90;;;;;;497210;239;27580;-65
2022/11/30 03:52:31;;;;;;;28.08;12.90;;;5.70;99.90;;;;;;497213;239;27471;-66
2022/11/30 03:54:32;;;;;;;28.27;11.88;;;5.60;99.90;;;;;;497215;239;27979;-64
2022/11/30 03:56:33;;;;;;;24.63;11.30;;;5.60;99.90;;;;;;497224;239;28115;-65
2022/11/30 03:58:34;;;;;;;23.48;11.65;;;5.60;99.90;;;;;;497235;239;27461;-64
2022/11/30 04:00:36;;;;;;;24.90;11.45;;;5.70;99.90;;;;;;497248;238;27593;-65
2022/11/30 04:02:37;;;;;;;23.48;10.63;;;5.70;99.90;;;;;;497233;239;27452;-64
2022/11/30 04:04:38;;;;;;;19.27;10.77;;;5.70;99.90;;;;;;497208;239;27632;-64
2022/11/30 04:06:40;;;;;;;20.90;10.30;;;5.70;99.90;;;;;;497250;239;27492;-67
2022/11/30 04:08:41;;;;;;;22.75;10.02;;;5.70;99.90;;;;;;497222;239;27994;-64
2022/11/30 04:10:42;;;;;;;20.67;10.55;;;5.60;99.90;;;;;;497224;239;27483;-64
2022/11/30 04:12:43;;;;;;;22.58;11.10;;;5.60;99.90;;;;;;497234;239;27444;-64
2022/11/30 04:14:45;;;;;;;20.52;10.23;;;5.60;99.90;;;;;;497223;239;27584;-66
2022/11/30 04:16:46;;;;;;;20.58;9.63;;;5.70;99.90;;;;;;497245;239;27387;-68
2022/11/30 04:18:47;;;;;;;20.90;10.88;;;5.70;99.90;;;;;;497219;239;27952;-66
2022/11/30 04:20:48;;;;;;;24.37;11.50;;;5.70;99.90;;;;;;497213;239;28118;-67
2022/11/30 04:22:50;;;;;;;24.20;10.38;;;5.70;99.90;;;;;;497190;239;27450;-65
2022/11/30 04:24:51;;;;;;;20.67;9.70;;;5.70;99.90;;;;;;497207;239;27469;-67
2022/11/30 04:26:52;;;;;;;18.48;10.30;;;5.70;99.90;;;;;;497220;239;27575;-69
2022/11/30 04:28:53;;;;;;;24.85;10.63;;;5.70;99.90;;;;;;497235;239;27481;-66
2022/11/30 04:30:55;;;;;;;17.02;9.25;;;5.70;99.90;;;;;;497236;239;27494;-67
2022/11/30 04:32:56;;;;;;;21.62;9.65;;;5.70;99.90;;;;;;497207;239;28650;-66
2022/11/30 04:34:57;;;;;;;22.40;10.45;;;5.60;99.90;;;;;;497240;239;27441;-66
2022/11/30 04:36:59;;;;;;;23.80;11.02;;;5.70;99.90;;;;;;497129;239;27615;-68
2022/11/30 04:39:00;;;;;;;24.00;11.50;;;5.60;99.90;;;;;;497200;239;27542;-65
2022/11/30 04:41:01;;;;;;;20.20;9.80;;;5.70;99.90;;;;;;497207;239;27479;-66
2022/11/30 04:43:02;;;;;;;21.33;10.30;;;5.70;99.90;;;;;;497214;239;27869;-66
2022/11/30 04:45:04;;;;;;;25.20;11.05;;;5.70;99.90;;;;;;497273;239;27813;-65
2022/11/30 04:47:05;;;;;;;18.60;9.63;;;5.70;99.90;;;;;;497227;239;27468;-67
2022/11/30 04:49:06;;;;;;;16.55;9.25;;;5.70;99.90;;;;;;497236;239;27536;-67
2022/11/30 04:51:07;;;;;;;17.45;9.23;;;5.80;99.90;;;;;;497192;239;27472;-67
2022/11/30 04:53:09;;;;;;;15.95;8.93;;;5.70;99.90;;;;;;497191;239;27601;-67
2022/11/30 04:55:10;;;;;;;18.70;9.23;;;5.70;99.90;;;;;;497220;239;27467;-66
2022/11/30 04:57:11;;;;;;;17.70;8.05;;;5.70;99.90;;;;;;497234;239;27492;-65
2022/11/30 04:59:12;;;;;;;18.58;8.82;;;5.70;99.90;;;;;;497197;239;27976;-64
2022/11/30 05:01:14;;;;;;;16.25;9.00;;;5.70;99.90;;;;;;497187;239;27945;-66
2022/11/30 05:03:15;;;;;;;14.98;8.00;;;5.70;99.90;;;;;;497191;239;27481;-64
2022/11/30 05:05:16;;;;;;;17.12;9.68;;;5.70;99.90;;;;;;497218;239;27479;-66
2022/11/30 05:07:17;;;;;;;26.75;10.20;;;5.70;99.90;;;;;;497201;239;27489;-68
2022/11/30 05:09:19;;;;;;;23.40;10.27;;;5.70;99.90;;;;;;497199;239;27571;-65
2022/11/30 05:11:20;;;;;;;18.92;8.90;;;5.60;99.90;;;;;;497203;239;27633;-66
2022/11/30 05:13:21;;;;;;;20.95;9.98;;;5.60;99.90;;;;;;497209;239;28694;-64
2022/11/30 05:15:22;;;;;;;16.62;8.90;;;5.70;99.90;;;;;;497234;239;27928;-64
2022/11/30 05:17:24;;;;;;;20.37;9.32;;;5.60;99.90;;;;;;497204;239;27480;-67
2022/11/30 05:19:25;;;;;;;17.00;9.30;;;5.70;99.90;;;;;;497202;239;27524;-64
2022/11/30 05:21:26;;;;;;;21.23;10.70;;;5.70;99.90;;;;;;497191;239;27479;-65
2022/11/30 05:23:27;;;;;;;21.70;10.90;;;5.70;99.90;;;;;;497189;239;27452;-64
2022/11/30 05:25:29;;;;;;;22.77;11.00;;;5.70;99.90;;;;;;497220;239;27477;-65
2022/11/30 05:27:30;;;;;;;25.12;12.18;;;5.70;99.90;;;;;;497232;239;27916;-69
2022/11/30 05:29:33;;;;;;;23.45;11.63;;;5.60;99.90;;;;;;497217;239;27900;-65
2022/11/30 05:31:33;;;;;;;19.70;10.20;;;5.70;99.90;;;;;;497068;239;27633;-67
2022/11/30 05:33:34;;;;;;;25.23;10.30;;;5.70;99.90;;;;;;497184;239;27523;-65
2022/11/30 05:35:35;;;;;;;26.27;11.93;;;5.70;99.90;;;;;;497215;239;27440;-66
2022/11/30 05:37:36;;;;;;;18.12;9.43;;;5.70;99.90;;;;;;497230;239;27493;-66
2022/11/30 05:39:38;;;;;;;19.30;9.57;;;5.70;99.90;;;;;;497185;239;27893;-66
2022/11/30 05:41:39;;;;;;;18.23;9.25;;;5.70;99.90;;;;;;497196;239;28068;-65
2022/11/30 05:43:40;;;;;;;17.20;9.15;;;5.70;99.90;;;;;;497192;239;27445;-64
2022/11/30 05:45:41;;;;;;;17.08;9.20;;;5.70;99.90;;;;;;497234;239;27551;-66
2022/11/30 05:47:43;;;;;;;23.27;11.43;;;5.70;99.90;;;;;;497225;239;27563;-68
2022/11/30 05:49:44;;;;;;;25.52;12.13;;;5.60;99.90;;;;;;497198;239;27440;-66
2022/11/30 05:51:45;;;;;;;25.92;10.15;;;5.70;99.90;;;;;;497192;239;27476;-67
2022/11/30 05:53:46;;;;;;;23.70;10.50;;;5.70;99.90;;;;;;497173;239;28868;-65
2022/11/30 05:55:48;;;;;;;21.35;10.95;;;5.70;99.90;;;;;;497212;239;27886;-66
2022/11/30 05:57:49;;;;;;;19.55;9.23;;;5.60;99.90;;;;;;497216;239;27393;-68
2022/11/30 05:59:50;;;;;;;24.67;10.57;;;5.70;99.90;;;;;;497219;239;27504;-64
2022/11/30 06:01:51;;;;;;;25.12;10.13;;;5.70;99.90;;;;;;497210;239;27491;-66
2022/11/30 06:03:53;;;;;;;22.98;9.82;;;5.70;99.90;;;;;;497232;239;27451;-64
2022/11/30 06:05:54;;;;;;;21.00;10.10;;;5.70;99.90;;;;;;497236;239;27925;-64
2022/11/30 06:07:55;;;;;;;20.77;10.15;;;5.70;99.90;;;;;;497214;239;27963;-68
2022/11/30 06:09:56;;;;;;;31.92;14.70;;;5.70;99.90;;;;;;497202;239;27457;-65
2022/11/30 06:11:58;;;;;;;29.98;12.13;;;5.60;99.90;;;;;;497189;239;27578;-66
2022/11/30 06:13:59;;;;;;;30.23;13.05;;;5.60;99.90;;;;;;497176;239;27570;-66
2022/11/30 06:16:00;;;;;;;32.42;13.95;;;5.60;99.90;;;;;;497225;239;27552;-67
2022/11/30 06:18:01;;;;;;;28.25;13.30;;;5.60;99.90;;;;;;497189;239;27893;-65
2022/11/30 06:20:03;;;;;;;28.90;12.55;;;5.70;99.90;;;;;;497177;239;27989;-66
2022/11/30 06:22:04;;;;;;;26.90;12.32;;;5.70;99.90;;;;;;497147;239;28021;-65
2022/11/30 06:24:05;;;;;;;30.42;13.20;;;5.60;99.90;;;;;;497212;239;27539;-69
2022/11/30 06:26:07;;;;;;;35.15;14.93;;;5.60;99.90;;;;;;497202;239;27563;-64
2022/11/30 06:28:08;;;;;;;28.15;13.57;;;5.60;99.90;;;;;;497179;239;27519;-67
2022/11/30 06:30:09;;;;;;;32.42;15.00;;;5.60;99.90;;;;;;497159;239;27501;-66
2022/11/30 06:32:10;;;;;;;42.58;16.12;;;5.50;99.90;;;;;;497172;239;27933;-64
2022/11/30 06:34:12;;;;;;;43.25;17.15;;;5.50;99.90;;;;;;497203;239;27988;-69
2022/11/30 06:36:13;;;;;;;33.47;15.65;;;5.50;99.90;;;;;;497167;239;27453;-64
2022/11/30 06:38:14;;;;;;;33.40;14.10;;;5.60;99.90;;;;;;497157;239;27511;-65
2022/11/30 06:40:16;;;;;;;38.45;15.20;;;5.60;99.90;;;;;;497161;239;27446;-66
2022/11/30 06:42:18;;;;;;;29.58;14.35;;;5.60;99.90;;;;;;497241;239;27570;-64
2022/11/30 06:44:18;;;;;;;30.42;14.60;;;5.70;99.90;;;;;;497174;239;28067;-66
2022/11/30 06:46:21;;;;;;;28.15;13.38;;;5.60;99.90;;;;;;497204;239;28019;-63
2022/11/30 06:48:21;;;;;;;32.50;14.07;;;5.60;99.90;;;;;;497136;239;27586;-65
2022/11/30 06:50:22;;;;;;;34.13;14.15;;;5.60;99.90;;;;;;497120;239;27484;-66
2022/11/30 06:52:23;;;;;;;33.05;13.57;;;5.60;99.90;;;;;;497208;239;27457;-64
2022/11/30 06:54:24;;;;;;;30.42;13.90;;;5.60;99.90;;;;;;497197;239;27515;-65
2022/11/30 06:56:26;;;;;;;31.98;14.20;;;5.60;99.90;;;;;;497192;239;27463;-66
2022/11/30 06:58:27;;;;;;;33.05;14.38;;;5.60;99.90;;;;;;497151;239;27990;-67
2022/11/30 07:00:28;;;;;;;34.08;14.98;;;5.60;99.90;;;;;;497200;239;28063;-64
2022/11/30 07:02:29;;;;;;;32.08;14.55;;;5.60;99.90;;;;;;497188;239;27501;-64
2022/11/30 07:04:31;;;;;;;34.72;12.95;;;5.60;99.90;;;;;;497195;239;27503;-66
2022/11/30 07:06:32;;;;;;;30.88;13.95;;;5.70;99.90;;;;;;497158;239;27622;-64
2022/11/30 07:08:33;;;;;;;28.48;13.75;;;5.70;99.90;;;;;;497165;239;27499;-66
2022/11/30 07:10:34;;;;;;;30.42;12.30;;;5.70;99.90;;;;;;497178;239;28295;-67
2022/11/30 07:12:36;;;;;;;24.33;10.88;;;5.70;99.90;;;;;;497213;239;27897;-64
2022/11/30 07:14:37;;;;;;;30.05;12.32;;;5.70;99.90;;;;;;497208;239;27556;-65
2022/11/30 07:16:38;;;;;;;27.77;11.75;;;5.70;99.90;;;;;;497183;239;27467;-64
2022/11/30 07:18:39;;;;;;;27.42;11.27;;;5.60;99.90;;;;;;497156;239;27614;-66
2022/11/30 07:20:41;;;;;;;27.75;12.18;;;5.70;99.90;;;;;;497216;239;27833;-67
2022/11/30 07:22:42;;;;;;;19.62;11.07;;;5.70;99.90;;;;;;497203;239;28052;-64
2022/11/30 07:27:03;;;;;;;25.08;11.20;;;5.60;99.90;;;;;;497181;239;27889;-64
2022/11/30 07:29:04;;;;;;;29.55;12.27;;;5.70;99.90;;;;;;497174;239;27473;-65
2022/11/30 07:31:05;;;;;;;24.65;10.65;;;5.70;99.90;;;;;;497185;239;27473;-64
2022/11/30 07:33:06;;;;;;;26.58;11.30;;;5.70;99.90;;;;;;497161;239;27445;-67
2022/11/30 07:35:08;;;;;;;25.95;11.20;;;5.70;99.90;;;;;;497197;239;27487;-67
2022/11/30 07:37:09;;;;;;;26.08;12.65;;;5.70;99.90;;;;;;497198;239;27441;-64
2022/11/30 07:39:10;;;;;;;25.90;11.38;;;5.70;99.90;;;;;;497163;239;28035;-66
2022/11/30 07:41:11;;;;;;;25.05;11.55;;;5.70;99.90;;;;;;497237;239;27528;-67
2022/11/30 07:43:13;;;;;;;24.35;12.07;;;5.70;99.90;;;;;;497212;239;27497;-64
2022/11/30 07:45:14;;;;;;;28.35;14.30;;;5.70;99.90;;;;;;497221;239;27507;-68
2022/11/30 07:47:15;;;;;;;31.15;14.38;;;5.70;99.90;;;;;;497207;239;27539;-64
2022/11/30 07:49:16;;;;;;;38.03;16.70;;;5.60;99.90;;;;;;497184;239;27533;-64
2022/11/30 07:51:18;;;;;;;39.58;16.40;;;5.60;99.90;;;;;;497227;239;28224;-67
2022/11/30 07:53:19;;;;;;;34.15;13.25;;;5.60;99.90;;;;;;497235;239;27449;-64
2022/11/30 07:55:22;;;;;;;37.05;14.90;;;5.70;99.90;;;;;;497248;239;27612;-65
2022/11/30 07:57:21;;;;;;;35.72;15.27;;;5.70;99.90;;;;;;497067;239;27436;-64
2022/11/30 07:59:23;;;;;;;44.08;16.80;;;5.60;99.90;;;;;;497164;239;27503;-64
2022/11/30 08:01:24;;;;;;;44.97;17.90;;;5.60;99.90;;;;;;497201;239;27701;-68
2022/11/30 08:03:25;;;;;;;36.58;15.13;;;5.70;99.90;;;;;;497151;239;27995;-66
2022/11/30 08:05:26;;;;;;;34.17;15.63;;;5.70;99.90;;;;;;497071;239;27609;-65
2022/11/30 08:07:28;;;;;;;38.75;16.10;;;5.70;99.90;;;;;;496980;239;27456;-65
2022/11/30 08:09:29;;;;;;;28.67;13.93;;;5.70;99.90;;;;;;497013;239;27484;-65
2022/11/30 08:11:31;;;;;;;32.15;14.15;;;5.80;99.90;;;;;;497039;239;28003;-66
2022/11/30 08:13:32;;;;;;;34.45;15.40;;;5.80;99.90;;;;;;497105;239;28003;-64
2022/11/30 08:15:33;;;;;;;36.13;17.52;;;5.70;99.90;;;;;;497170;239;28113;-67
2022/11/30 08:17:34;;;;;;;31.35;14.98;;;5.70;99.90;;;;;;497158;239;27611;-66
2022/11/30 08:19:35;;;;;;;35.72;15.52;;;5.80;99.90;;;;;;497150;239;27571;-66
2022/11/30 08:21:37;;;;;;;33.25;14.98;;;5.70;99.90;;;;;;497362;239;27579;-69
2022/11/30 08:23:38;;;;;;;32.35;13.75;;;5.80;99.90;;;;;;497196;239;27467;-66
2022/11/30 08:25:39;;;;;;;29.48;13.88;;;5.90;99.90;;;;;;497201;239;28063;-66
2022/11/30 08:27:40;;;;;;;35.30;14.57;;;5.90;99.90;;;;;;497203;239;27581;-65
2022/11/30 08:29:42;;;;;;;41.63;16.30;;;5.90;99.90;;;;;;497184;239;27551;-66
2022/11/30 08:31:43;;;;;;;39.35;15.48;;;5.80;99.90;;;;;;497223;239;27648;-68
2022/11/30 08:33:44;;;;;;;31.77;13.62;;;5.80;99.90;;;;;;497232;239;27480;-66
2022/11/30 08:35:45;;;;;;;32.70;13.40;;;5.90;99.90;;;;;;497206;239;27491;-66
2022/11/30 08:37:47;;;;;;;33.63;14.82;;;5.90;99.90;;;;;;497215;239;27893;-66
2022/11/30 08:39:48;;;;;;;33.17;13.75;;;5.90;99.90;;;;;;497203;239;27480;-66
2022/11/30 08:41:50;;;;;;;32.40;14.20;;;6.00;99.90;;;;;;497238;239;27574;-68
2022/11/30 08:43:50;;;;;;;33.70;14.55;;;5.90;99.90;;;;;;497144;239;27495;-65
2022/11/30 08:45:52;;;;;;;31.80;14.52;;;5.90;99.90;;;;;;497206;239;27491;-65
2022/11/30 08:47:53;;;;;;;34.58;15.15;;;6.00;99.90;;;;;;497166;239;27980;-65
2022/11/30 08:49:54;;;;;;;36.15;15.27;;;5.90;99.90;;;;;;497230;239;27531;-66
2022/11/30 08:51:55;;;;;;;36.25;16.55;;;5.90;99.90;;;;;;497239;239;27528;-68
2022/11/30 08:53:57;;;;;;;41.75;16.25;;;5.90;99.90;;;;;;497223;239;27572;-66
2022/11/30 08:55:58;;;;;;;42.42;17.05;;;5.90;99.90;;;;;;497205;239;27468;-67
2022/11/30 08:57:59;;;;;;;35.75;15.90;;;5.80;99.90;;;;;;497197;239;27961;-65
2022/11/30 09:00:01;;;;;;;37.65;15.73;;;5.90;99.90;;;;;;497219;239;28097;-66
2022/11/30 09:02:02;;;;;;;32.97;14.52;;;5.90;99.90;;;;;;496895;239;27606;-68
2022/11/30 09:04:03;;;;;;;36.05;14.68;;;5.90;99.90;;;;;;497219;239;27503;-65
2022/11/30 09:06:04;;;;;;;31.20;14.45;;;5.90;99.90;;;;;;497217;239;27638;-66
2022/11/30 09:08:06;;;;;;;30.23;13.65;;;5.90;99.90;;;;;;497207;239;27543;-65
2022/11/30 09:10:07;;;;;;;29.30;14.40;;;6.00;99.90;;;;;;497215;239;27905;-66
2022/11/30 09:12:08;;;;;;;31.17;13.82;;;5.90;99.90;;;;;;497261;239;27575;-67
2022/11/30 09:14:10;;;;;;;34.83;15.05;;;5.90;99.90;;;;;;497222;239;27536;-66
2022/11/30 09:16:11;;;;;;;33.10;15.55;;;5.90;99.90;;;;;;497205;239;27480;-66
2022/11/30 09:18:13;;;;;;;34.38;15.40;;;5.90;99.90;;;;;;497207;239;27464;-66
2022/11/30 09:20:13;;;;;;;32.88;14.65;;;5.90;99.90;;;;;;497195;239;27814;-66
2022/11/30 09:22:14;;;;;;;29.05;14.50;;;6.00;99.90;;;;;;497228;239;28031;-67
2022/11/30 09:24:16;;;;;;;32.50;15.00;;;6.00;99.90;;;;;;497219;239;27506;-65
2022/11/30 09:26:17;;;;;;;34.92;14.95;;;5.90;99.90;;;;;;497174;239;27531;-66
2022/11/30 09:28:18;;;;;;;31.17;12.65;;;6.00;99.90;;;;;;497179;239;27584;-65
2022/11/30 09:30:19;;;;;;;31.58;14.20;;;6.00;99.90;;;;;;497220;239;27396;-66
2022/11/30 09:32:21;;;;;;;32.83;15.40;;;6.00;99.90;;;;;;497193;239;28064;-67
2022/11/30 09:34:22;;;;;;;35.05;14.80;;;5.90;99.90;;;;;;497188;239;27462;-67
2022/11/30 09:36:25;;;;;;;30.42;16.12;;;5.90;99.90;;;;;;497169;239;27546;-67
2022/11/30 09:38:25;;;;;;;34.95;14.73;;;5.90;99.90;;;;;;497068;238;27583;-66
2022/11/30 09:40:26;;;;;;;34.55;15.48;;;5.90;99.90;;;;;;497219;239;27472;-66
2022/11/30 09:42:27;;;;;;;37.10;16.37;;;5.80;99.90;;;;;;497213;239;27948;-66
2022/11/30 09:44:28;;;;;;;37.83;16.35;;;5.80;99.90;;;;;;497207;239;27986;-65
2022/11/30 09:46:30;;;;;;;39.03;15.70;;;5.90;99.90;;;;;;496994;239;27473;-66
2022/11/30 09:48:31;;;;;;;34.75;15.18;;;5.90;99.90;;;;;;497244;239;27574;-65
2022/11/30 09:50:32;;;;;;;34.80;16.40;;;5.90;99.90;;;;;;497227;239;27448;-66
2022/11/30 09:52:33;;;;;;;29.52;15.02;;;5.90;99.90;;;;;;497206;239;27583;-66
2022/11/30 09:54:35;;;;;;;32.95;14.27;;;5.90;99.90;;;;;;497178;239;27955;-65
2022/11/30 09:56:36;;;;;;;33.92;14.98;;;5.90;99.90;;;;;;497188;239;27978;-66
2022/11/30 09:58:37;;;;;;;36.90;15.02;;;5.90;99.90;;;;;;497227;239;27504;-66
2022/11/30 10:00:38;;;;;;;33.03;14.48;;;5.90;99.90;;;;;;497211;239;27468;-65
2022/11/30 10:02:40;;;;;;;29.00;15.05;;;6.00;99.90;;;;;;497181;239;27580;-65
2022/11/30 10:04:41;;;;;;;28.48;15.07;;;6.00;99.90;;;;;;497193;239;27495;-66
2022/11/30 10:06:42;;;;;;;35.58;16.45;;;6.00;99.90;;;;;;497192;239;28038;-66
2022/11/30 10:08:43;;;;;;;27.08;14.60;;;6.00;99.90;;;;;;497221;239;27499;-68
2022/11/30 10:10:45;;;;;;;30.02;14.23;;;6.00;99.90;;;;;;497214;239;27461;-66
2022/11/30 10:12:48;;;;;;;28.58;13.88;;;6.00;99.90;;;;;;497216;239;27593;-66
2022/11/30 10:14:47;;;;;;;29.10;14.07;;;5.90;99.90;;;;;;497115;239;27458;-65
2022/11/30 10:16:48;;;;;;;25.55;13.40;;;6.00;99.90;;;;;;497167;239;28001;-66
2022/11/30 10:18:50;;;;;;;22.92;12.57;;;6.00;99.90;;;;;;497240;239;28050;-68
2022/11/30 10:20:51;;;;;;;26.25;13.27;;;6.10;99.90;;;;;;497228;239;27484;-66
2022/11/30 10:22:52;;;;;;;26.25;14.68;;;6.10;99.90;;;;;;497220;239;27587;-67
2022/11/30 10:24:54;;;;;;;23.15;13.13;;;6.10;99.90;;;;;;497190;239;27528;-65
2022/11/30 10:26:55;;;;;;;28.50;14.95;;;6.10;99.90;;;;;;497192;239;27483;-66